Terminal Aerodrome Forecast
Issued by NWS

Home | Current Version | Previous Version | Text Only | Print | Product List | Glossary On
Versions: 1 2 3 4 5 6 7 8 9 10 11 12 13 14 15 16 17 18 19 20 21 22
618
FTUS43 KGRR 180540
TAFBTL
TAF
KBTL 180540Z 1806/1906 23010KT P6SM BKN070
     FM180700 24011KT P6SM VCSH OVC035
     FM181200 26012KT P6SM VCSH OVC020
     FM181700 28015G21KT P6SM BKN035
     FM190000 28009KT P6SM OVC050=

USA.gov is the U.S. government's official web portal to all federal, state and local government web resources and services.